createdAt,value
2023-01-30T00:00:18.172Z,1011.54
2023-01-30T00:01:18.060Z,1011.60
2023-01-30T00:02:17.934Z,1011.60
2023-01-30T00:03:17.855Z,1011.68
2023-01-30T00:04:17.837Z,1011.69
2023-01-30T00:05:17.950Z,1011.67
2023-01-30T00:06:17.818Z,1011.57
2023-01-30T00:07:19.706Z,1011.65
2023-01-30T00:08:17.802Z,1011.72
2023-01-30T00:09:17.794Z,1011.68
2023-01-30T00:10:18.270Z,1011.68
2023-01-30T00:11:17.848Z,1011.61
2023-01-30T00:12:17.800Z,1011.59
2023-01-30T00:13:17.747Z,1011.54
2023-01-30T00:14:17.736Z,1011.50
2023-01-30T00:15:17.726Z,1011.54
2023-01-30T00:16:17.791Z,1011.45
2023-01-30T00:17:17.704Z,1011.49
2023-01-30T00:18:17.685Z,1011.46
2023-01-30T00:19:17.691Z,1011.40
2023-01-30T00:20:17.885Z,1011.39
2023-01-30T00:21:17.698Z,1011.25
2023-01-30T00:22:17.652Z,1011.46
2023-01-30T00:23:17.803Z,1011.37
2023-01-30T00:24:17.712Z,1011.41
2023-01-30T00:25:17.755Z,1011.34
2023-01-30T00:26:17.746Z,1011.30
2023-01-30T00:27:17.593Z,1011.33
2023-01-30T00:28:17.573Z,1011.39
2023-01-30T00:29:17.612Z,1011.27
2023-01-30T00:30:17.797Z,1011.27
2023-01-30T00:31:17.675Z,1011.24
2023-01-30T00:32:17.547Z,1011.13
2023-01-30T00:33:17.531Z,1011.14
2023-01-30T00:34:17.531Z,1011.06
2023-01-30T00:35:17.523Z,1011.11
2023-01-30T00:36:17.509Z,1011.08
2023-01-30T00:37:17.534Z,1011.06
2023-01-30T00:38:21.104Z,1011.01
2023-01-30T00:39:17.531Z,1010.93
2023-01-30T00:40:17.822Z,1011.02
2023-01-30T00:41:17.521Z,1011.02
2023-01-30T00:42:17.492Z,1010.98
2023-01-30T00:43:17.444Z,1011.08
2023-01-30T00:44:17.432Z,1010.97
2023-01-30T00:45:17.659Z,1011.00
2023-01-30T00:46:17.407Z,1010.79
2023-01-30T00:47:17.559Z,1010.97
2023-01-30T00:48:17.371Z,1011.00
2023-01-30T00:49:17.411Z,1010.87
2023-01-30T00:50:17.371Z,1010.95
2023-01-30T00:51:17.349Z,1010.83
2023-01-30T00:52:17.373Z,1010.85
2023-01-30T00:53:17.329Z,1010.83
2023-01-30T00:54:17.343Z,1010.84
2023-01-30T00:55:17.563Z,1010.76
2023-01-30T00:56:17.335Z,1010.76
2023-01-30T00:57:17.367Z,1010.73
2023-01-30T00:58:17.275Z,1010.63
2023-01-30T00:59:17.268Z,1010.74
2023-01-30T01:00:17.249Z,1010.73
2023-01-30T01:01:17.249Z,1010.70
2023-01-30T01:02:17.319Z,1010.70
2023-01-30T01:03:17.240Z,1010.73
2023-01-30T01:04:17.258Z,1010.74
2023-01-30T01:05:17.548Z,1010.69
2023-01-30T01:06:17.218Z,1010.72
2023-01-30T01:07:17.214Z,1010.64
2023-01-30T01:08:17.192Z,1010.61
2023-01-30T01:09:17.169Z,1010.70
2023-01-30T01:10:17.187Z,1010.61
2023-01-30T01:11:17.138Z,1010.58
2023-01-30T01:12:17.129Z,1010.55
2023-01-30T01:13:17.128Z,1010.49
2023-01-30T01:14:17.111Z,1010.44
2023-01-30T01:15:17.448Z,1010.53
2023-01-30T01:16:17.167Z,1010.53
2023-01-30T01:17:17.078Z,1010.43
2023-01-30T01:18:17.073Z,1010.50
2023-01-30T01:19:17.096Z,1010.53
2023-01-30T01:20:17.089Z,1010.51
2023-01-30T01:21:19.311Z,1010.51
2023-01-30T01:22:17.033Z,1010.54
2023-01-30T01:23:17.016Z,1010.43
2023-01-30T01:24:17.014Z,1010.46
2023-01-30T01:25:17.341Z,1010.36
2023-01-30T01:26:17.029Z,1010.38
2023-01-30T01:27:16.974Z,1010.42
2023-01-30T01:28:16.954Z,1010.34
2023-01-30T01:29:16.957Z,1010.35
2023-01-30T01:30:16.971Z,1010.33
2023-01-30T01:31:16.999Z,1010.29
2023-01-30T01:32:16.915Z,1010.28
2023-01-30T01:33:17.027Z,1010.21
2023-01-30T01:34:16.904Z,1010.15
2023-01-30T01:35:17.477Z,1010.18
2023-01-30T01:36:42.346Z,1010.20
2023-01-30T01:37:17.865Z,1010.24
2023-01-30T01:38:16.846Z,1010.19
2023-01-30T01:39:16.847Z,1010.24
2023-01-30T01:40:16.833Z,1010.16
2023-01-30T01:41:16.853Z,1010.18
2023-01-30T01:42:16.804Z,1010.08
2023-01-30T01:43:16.804Z,1010.07
2023-01-30T01:44:16.796Z,1010.07
2023-01-30T01:45:17.180Z,1010.06
2023-01-30T01:46:16.906Z,1010.06
2023-01-30T01:47:16.769Z,1010.04
2023-01-30T01:48:16.797Z,1010.07
2023-01-30T01:49:16.774Z,1010.03
2023-01-30T01:50:16.725Z,1010.10
2023-01-30T01:51:16.713Z,1010.16
2023-01-30T01:52:16.746Z,1010.05
2023-01-30T01:53:16.697Z,1010.07
2023-01-30T01:54:16.678Z,1010.07
2023-01-30T01:55:17.134Z,1009.99
2023-01-30T01:56:16.668Z,1009.97
2023-01-30T01:57:16.663Z,1009.99
2023-01-30T01:58:16.683Z,1009.90
2023-01-30T01:59:16.635Z,1009.81
2023-01-30T02:00:16.618Z,1009.75
2023-01-30T02:01:16.663Z,1009.82
2023-01-30T02:02:16.650Z,1009.74
2023-01-30T02:03:16.600Z,1009.77
2023-01-30T02:04:16.592Z,1009.70
2023-01-30T02:05:17.069Z,1009.66
2023-01-30T02:06:16.567Z,1009.83
2023-01-30T02:07:16.551Z,1009.76
2023-01-30T02:08:16.572Z,1009.74
2023-01-30T02:09:16.574Z,1009.73
2023-01-30T02:10:16.531Z,1009.64
2023-01-30T02:11:16.511Z,1009.66
2023-01-30T02:12:16.494Z,1009.69
2023-01-30T02:13:16.573Z,1009.69
2023-01-30T02:14:16.511Z,1009.62
2023-01-30T02:15:16.936Z,1009.52
2023-01-30T02:16:16.460Z,1009.61
2023-01-30T02:17:16.492Z,1009.51
2023-01-30T02:18:16.435Z,1009.45
2023-01-30T02:19:16.420Z,1009.52
2023-01-30T02:20:16.412Z,1009.51
2023-01-30T02:21:16.479Z,1009.36
2023-01-30T02:22:16.392Z,1009.25
2023-01-30T02:23:16.471Z,1009.22
2023-01-30T02:24:16.368Z,1009.20
2023-01-30T02:25:16.713Z,1009.18
2023-01-30T02:26:16.364Z,1009.29
2023-01-30T02:27:16.369Z,1009.26
2023-01-30T02:28:16.340Z,1009.26
2023-01-30T02:29:16.319Z,1009.23
2023-01-30T02:30:16.303Z,1009.24
2023-01-30T02:31:16.466Z,1009.22
2023-01-30T02:32:16.288Z,1009.18
2023-01-30T02:33:16.321Z,1009.15
2023-01-30T02:34:16.268Z,1009.26
2023-01-30T02:35:16.661Z,1009.17
2023-01-30T02:36:16.268Z,1009.26
2023-01-30T02:37:16.236Z,1009.28
2023-01-30T02:38:16.225Z,1009.34
2023-01-30T02:39:16.280Z,1009.34
2023-01-30T02:40:16.200Z,1009.18
2023-01-30T02:41:16.238Z,1009.17
2023-01-30T02:42:16.176Z,1009.17
2023-01-30T02:43:16.188Z,1009.11
2023-01-30T02:44:16.177Z,1009.11
2023-01-30T02:45:16.528Z,1009.15
2023-01-30T02:46:16.207Z,1009.14
2023-01-30T02:47:16.222Z,1009.16
2023-01-30T02:48:16.122Z,1009.11
2023-01-30T02:49:16.106Z,1009.03
2023-01-30T02:50:16.087Z,1009.05
2023-01-30T02:51:16.089Z,1008.98
2023-01-30T02:52:17.482Z,1009.05
2023-01-30T02:53:16.195Z,1008.98
2023-01-30T02:54:16.073Z,1009.10
2023-01-30T02:55:16.230Z,1009.06
2023-01-30T02:56:16.025Z,1009.04
2023-01-30T02:57:16.077Z,1009.06
2023-01-30T02:58:16.004Z,1009.01
2023-01-30T02:59:16.002Z,1008.96
2023-01-30T03:00:16.063Z,1008.98
2023-01-30T03:01:16.028Z,1009.00
2023-01-30T03:02:15.973Z,1008.94
2023-01-30T03:03:16.015Z,1008.90
2023-01-30T03:04:15.945Z,1008.90
2023-01-30T03:05:16.433Z,1008.89
2023-01-30T03:06:15.985Z,1008.91
2023-01-30T03:07:15.915Z,1008.84
2023-01-30T03:08:15.909Z,1008.82
2023-01-30T03:09:15.908Z,1008.87
2023-01-30T03:10:15.927Z,1008.81
2023-01-30T03:11:15.933Z,1008.70
2023-01-30T03:12:15.862Z,1008.67
2023-01-30T03:13:15.844Z,1008.74
2023-01-30T03:14:15.854Z,1008.75
2023-01-30T03:15:16.162Z,1008.79
2023-01-30T03:16:15.859Z,1008.65
2023-01-30T03:17:15.814Z,1008.60
2023-01-30T03:18:15.836Z,1008.62
2023-01-30T03:19:15.793Z,1008.59
2023-01-30T03:20:15.785Z,1008.55
2023-01-30T03:21:15.788Z,1008.56
2023-01-30T03:22:15.794Z,1008.55
2023-01-30T03:23:15.754Z,1008.52
2023-01-30T03:24:15.732Z,1008.46
2023-01-30T03:25:16.126Z,1008.34
2023-01-30T03:26:15.784Z,1008.46
2023-01-30T03:27:15.760Z,1008.38
2023-01-30T03:28:15.702Z,1008.49
2023-01-30T03:29:15.715Z,1008.50
2023-01-30T03:30:15.727Z,1008.57
2023-01-30T03:31:15.778Z,1008.59
2023-01-30T03:32:15.652Z,1008.59
2023-01-30T03:33:15.706Z,1008.56
2023-01-30T03:34:15.647Z,1008.55
2023-01-30T03:35:16.089Z,1008.54
2023-01-30T03:36:15.612Z,1008.59
2023-01-30T03:37:15.618Z,1008.60
2023-01-30T03:38:15.625Z,1008.58
2023-01-30T03:39:15.609Z,1008.37
2023-01-30T03:40:15.569Z,1008.28
2023-01-30T03:41:15.567Z,1008.33
2023-01-30T03:42:15.544Z,1008.29
2023-01-30T03:43:15.610Z,1008.24
2023-01-30T03:44:15.528Z,1008.20
2023-01-30T03:45:16.123Z,1008.15
2023-01-30T03:46:15.550Z,1008.12
2023-01-30T03:47:15.504Z,1008.17
2023-01-30T03:48:15.536Z,1008.17
2023-01-30T03:49:15.478Z,1008.21
2023-01-30T03:50:15.463Z,1008.21
2023-01-30T03:51:15.459Z,1008.17
2023-01-30T03:52:15.439Z,1008.19
2023-01-30T03:53:15.509Z,1008.22
2023-01-30T03:54:15.411Z,1008.20
2023-01-30T03:55:15.797Z,1008.19
2023-01-30T03:56:15.410Z,1008.12
2023-01-30T03:57:15.419Z,1008.09
2023-01-30T03:58:15.395Z,1008.13
2023-01-30T03:59:15.410Z,1008.14
2023-01-30T04:00:15.366Z,1008.09
2023-01-30T04:01:15.369Z,1008.04
2023-01-30T04:02:15.384Z,1008.10
2023-01-30T04:03:15.337Z,1008.04
2023-01-30T04:04:15.324Z,1008.09
2023-01-30T04:05:15.569Z,1008.10
2023-01-30T04:06:15.297Z,1008.05
2023-01-30T04:07:15.349Z,1008.05
2023-01-30T04:08:15.298Z,1008.08
2023-01-30T04:09:15.267Z,1007.96
2023-01-30T04:10:15.314Z,1008.06
2023-01-30T04:11:15.260Z,1008.07
2023-01-30T04:12:15.253Z,1007.98
2023-01-30T04:13:15.266Z,1008.06
2023-01-30T04:14:15.207Z,1008.08
2023-01-30T04:15:15.212Z,1008.03
2023-01-30T04:16:15.287Z,1008.03
2023-01-30T04:17:22.681Z,1008.01
2023-01-30T04:18:15.160Z,1008.06
2023-01-30T04:19:15.171Z,1008.03
2023-01-30T04:20:15.143Z,1008.06
2023-01-30T04:21:15.137Z,1008.02
2023-01-30T04:22:15.153Z,1007.92
2023-01-30T04:23:15.102Z,1007.95
2023-01-30T04:24:15.109Z,1008.00
2023-01-30T04:25:15.115Z,1007.98
2023-01-30T04:26:15.105Z,1007.92
2023-01-30T04:27:15.091Z,1007.96
2023-01-30T04:28:15.062Z,1007.94
2023-01-30T04:29:15.088Z,1007.90
2023-01-30T04:30:15.029Z,1007.80
2023-01-30T04:31:15.085Z,1007.86
2023-01-30T04:32:15.010Z,1007.86
2023-01-30T04:33:15.006Z,1007.89
2023-01-30T04:34:15.009Z,1007.91
2023-01-30T04:35:15.033Z,1007.84
2023-01-30T04:36:14.969Z,1007.87
2023-01-30T04:37:14.951Z,1007.92
2023-01-30T04:38:14.950Z,1007.92
2023-01-30T04:39:14.968Z,1008.02
2023-01-30T04:40:14.929Z,1008.04
2023-01-30T04:41:14.965Z,1008.00
2023-01-30T04:42:14.903Z,1008.03
2023-01-30T04:43:14.936Z,1008.00
2023-01-30T04:44:14.894Z,1008.05
2023-01-30T04:45:14.917Z,1008.02
2023-01-30T04:46:14.887Z,1007.97
2023-01-30T04:47:14.911Z,1007.87
2023-01-30T04:48:15.536Z,1007.79
2023-01-30T04:49:15.692Z,1007.83
2023-01-30T04:50:14.960Z,1007.90
2023-01-30T04:51:14.869Z,1007.91
2023-01-30T04:52:15.567Z,1007.85
2023-01-30T04:53:15.656Z,1007.76
2023-01-30T04:54:15.311Z,1007.84
2023-01-30T04:55:14.895Z,1007.89
2023-01-30T04:56:15.984Z,1007.79
2023-01-30T04:57:15.625Z,1007.82
2023-01-30T04:58:14.739Z,1007.75
2023-01-30T04:59:14.729Z,1007.75
2023-01-30T05:00:14.721Z,1007.72
2023-01-30T05:01:14.707Z,1007.82
2023-01-30T05:02:14.760Z,1007.84
2023-01-30T05:03:14.685Z,1007.78
2023-01-30T05:04:14.671Z,1007.76
2023-01-30T05:05:14.657Z,1007.68
2023-01-30T05:06:14.656Z,1007.73
2023-01-30T05:07:14.636Z,1007.60
2023-01-30T05:08:14.698Z,1007.66
2023-01-30T05:09:14.635Z,1007.72
2023-01-30T05:10:14.607Z,1007.63
2023-01-30T05:11:14.587Z,1007.57
2023-01-30T05:12:14.643Z,1007.77
2023-01-30T05:13:14.597Z,1007.71
2023-01-30T05:14:14.568Z,1007.71
2023-01-30T05:15:14.552Z,1007.71
2023-01-30T05:16:14.552Z,1007.71
2023-01-30T05:17:14.531Z,1007.69
2023-01-30T05:18:14.745Z,1007.71
2023-01-30T05:19:14.519Z,1007.69
2023-01-30T05:20:14.495Z,1007.68
2023-01-30T05:21:14.484Z,1007.57
2023-01-30T05:22:14.481Z,1007.57
2023-01-30T05:23:14.453Z,1007.63
2023-01-30T05:24:14.492Z,1007.72
2023-01-30T05:25:14.460Z,1007.62
2023-01-30T05:26:14.562Z,1007.62
2023-01-30T05:27:14.425Z,1007.71
2023-01-30T05:28:14.420Z,1007.66
2023-01-30T05:29:14.395Z,1007.66
2023-01-30T05:30:14.484Z,1007.65
2023-01-30T05:31:14.457Z,1007.68
2023-01-30T05:32:14.373Z,1007.53
2023-01-30T05:33:14.352Z,1007.52
2023-01-30T05:34:14.391Z,1007.62
2023-01-30T05:35:14.351Z,1007.62
2023-01-30T05:36:14.365Z,1007.57
2023-01-30T05:37:14.311Z,1007.57
2023-01-30T05:38:14.312Z,1007.59
2023-01-30T05:39:14.292Z,1007.63
2023-01-30T05:40:14.300Z,1007.52
2023-01-30T05:41:14.267Z,1007.55
2023-01-30T05:42:14.282Z,1007.45
2023-01-30T05:43:14.268Z,1007.45
2023-01-30T05:44:14.257Z,1007.47
2023-01-30T05:45:14.392Z,1007.44
2023-01-30T05:46:14.311Z,1007.47
2023-01-30T05:47:14.238Z,1007.53
2023-01-30T05:48:14.193Z,1007.45
2023-01-30T05:49:14.181Z,1007.45
2023-01-30T05:50:14.251Z,1007.40
2023-01-30T05:51:14.185Z,1007.52
2023-01-30T05:52:14.163Z,1007.52
2023-01-30T05:53:14.170Z,1007.48
2023-01-30T05:54:14.244Z,1007.55
2023-01-30T05:55:14.121Z,1007.53
2023-01-30T05:56:14.161Z,1007.56
2023-01-30T05:57:14.191Z,1007.52
2023-01-30T05:58:14.223Z,1007.52
2023-01-30T05:59:14.245Z,1007.50
2023-01-30T06:00:14.281Z,1007.46
2023-01-30T06:01:14.120Z,1007.45
2023-01-30T06:02:14.304Z,1007.66
2023-01-30T06:03:14.171Z,1007.57
2023-01-30T06:04:14.218Z,1007.51
2023-01-30T06:05:14.181Z,1007.57
2023-01-30T06:06:14.271Z,1007.63
2023-01-30T06:07:14.005Z,1007.74
2023-01-30T06:08:14.010Z,1007.69
2023-01-30T06:09:13.977Z,1007.83
2023-01-30T06:10:14.002Z,1007.75
2023-01-30T06:11:13.954Z,1007.77
2023-01-30T06:12:13.940Z,1007.68
2023-01-30T06:13:13.946Z,1007.74
2023-01-30T06:14:13.963Z,1007.81
2023-01-30T06:15:13.914Z,1007.73
2023-01-30T06:16:13.945Z,1007.71
2023-01-30T06:17:13.999Z,1007.75
2023-01-30T06:18:13.894Z,1007.72
2023-01-30T06:19:13.958Z,1007.69
2023-01-30T06:20:13.895Z,1007.70
2023-01-30T06:21:13.853Z,1007.63
2023-01-30T06:22:13.845Z,1007.65
2023-01-30T06:23:13.827Z,1007.61
2023-01-30T06:24:13.834Z,1007.62
2023-01-30T06:25:13.830Z,1007.69
2023-01-30T06:26:13.941Z,1007.64
2023-01-30T06:27:13.848Z,1007.60
2023-01-30T06:28:13.791Z,1007.60
2023-01-30T06:29:13.780Z,1007.62
2023-01-30T06:30:13.758Z,1007.56
2023-01-30T06:31:13.930Z,1007.63
2023-01-30T06:32:13.737Z,1007.67
2023-01-30T06:33:13.736Z,1007.74
2023-01-30T06:34:13.749Z,1007.72
2023-01-30T06:35:13.744Z,1007.72
2023-01-30T06:36:13.692Z,1007.75
2023-01-30T06:37:13.677Z,1007.72
2023-01-30T06:38:13.671Z,1007.86
2023-01-30T06:39:13.655Z,1007.84
2023-01-30T06:40:13.725Z,1007.91
2023-01-30T06:41:13.661Z,1007.96
2023-01-30T06:42:13.626Z,1007.97
2023-01-30T06:43:13.635Z,1008.07
2023-01-30T06:44:13.635Z,1008.05
2023-01-30T06:45:13.660Z,1008.11
2023-01-30T06:46:13.693Z,1008.02
2023-01-30T06:47:13.622Z,1008.03
2023-01-30T06:48:14.039Z,1008.03
2023-01-30T06:49:13.555Z,1008.01
2023-01-30T06:50:13.583Z,1007.99
2023-01-30T06:51:13.614Z,1007.98
2023-01-30T06:52:13.527Z,1007.97
2023-01-30T06:53:13.505Z,1007.94
2023-01-30T06:54:13.547Z,1007.94
2023-01-30T06:55:13.485Z,1007.88
2023-01-30T06:56:13.678Z,1007.87
2023-01-30T06:57:13.473Z,1007.92
2023-01-30T06:58:13.465Z,1007.83
2023-01-30T06:59:13.612Z,1007.87
2023-01-30T07:00:13.616Z,1007.88
2023-01-30T07:01:13.557Z,1007.83
2023-01-30T07:02:13.605Z,1007.76
2023-01-30T07:03:13.736Z,1007.74
2023-01-30T07:04:13.442Z,1007.83
2023-01-30T07:05:13.540Z,1007.90
2023-01-30T07:06:13.395Z,1007.95
2023-01-30T07:07:13.788Z,1007.87
2023-01-30T07:08:13.505Z,1007.91
2023-01-30T07:09:13.391Z,1007.85
2023-01-30T07:10:13.328Z,1007.83
2023-01-30T07:11:13.474Z,1007.81
2023-01-30T07:12:13.311Z,1007.89
2023-01-30T07:13:13.374Z,1007.92
2023-01-30T07:14:13.423Z,1007.94
2023-01-30T07:15:13.297Z,1007.97
2023-01-30T07:16:13.285Z,1008.05
2023-01-30T07:17:13.385Z,1008.19
2023-01-30T07:18:13.256Z,1008.07
2023-01-30T07:19:13.268Z,1008.09
2023-01-30T07:20:13.225Z,1007.96
2023-01-30T07:21:13.315Z,1008.09
2023-01-30T07:22:13.247Z,1008.28
2023-01-30T07:23:13.197Z,1008.09
2023-01-30T07:24:13.207Z,1008.10
2023-01-30T07:25:13.167Z,1008.10
2023-01-30T07:26:13.170Z,1008.11
2023-01-30T07:27:13.270Z,1008.11
2023-01-30T07:28:13.198Z,1008.22
2023-01-30T07:29:13.158Z,1008.18
2023-01-30T07:30:13.206Z,1008.22
2023-01-30T07:31:13.106Z,1008.24
2023-01-30T07:32:13.095Z,1008.31
2023-01-30T07:33:13.091Z,1008.43
2023-01-30T07:34:13.079Z,1008.30
2023-01-30T07:35:13.055Z,1008.27
2023-01-30T07:36:13.096Z,1008.36
2023-01-30T07:37:13.050Z,1008.28
2023-01-30T07:38:13.037Z,1008.30
2023-01-30T07:39:13.120Z,1008.36
2023-01-30T07:40:13.115Z,1008.40
2023-01-30T07:41:13.111Z,1008.36
2023-01-30T07:42:13.156Z,1008.46
2023-01-30T07:43:13.034Z,1008.34
2023-01-30T07:44:13.001Z,1008.36
2023-01-30T07:45:12.993Z,1008.28
2023-01-30T07:46:12.955Z,1008.34
2023-01-30T07:47:12.956Z,1008.33
2023-01-30T07:48:12.965Z,1008.30
2023-01-30T07:49:12.960Z,1008.23
2023-01-30T07:50:12.944Z,1008.26
2023-01-30T07:51:12.934Z,1008.28
2023-01-30T07:52:12.898Z,1008.33
2023-01-30T07:53:12.917Z,1008.35
2023-01-30T07:54:13.020Z,1008.19
2023-01-30T07:55:12.886Z,1008.33
2023-01-30T07:56:12.844Z,1008.47
2023-01-30T07:57:12.888Z,1008.42
2023-01-30T07:58:12.846Z,1008.33
2023-01-30T07:59:12.803Z,1008.36
2023-01-30T08:00:12.863Z,1008.32
2023-01-30T08:01:12.869Z,1008.33
2023-01-30T08:02:12.855Z,1008.36
2023-01-30T08:03:12.784Z,1008.43
2023-01-30T08:04:12.832Z,1008.25
2023-01-30T08:05:12.788Z,1008.42
2023-01-30T08:06:12.825Z,1008.40
2023-01-30T08:07:12.723Z,1008.42
2023-01-30T08:08:12.724Z,1008.46
2023-01-30T08:09:12.705Z,1008.46
2023-01-30T08:10:12.727Z,1008.34
2023-01-30T08:11:12.724Z,1008.52
2023-01-30T08:12:12.698Z,1008.49
2023-01-30T08:13:12.665Z,1008.41
2023-01-30T08:14:12.660Z,1008.46
2023-01-30T08:15:12.670Z,1008.47
2023-01-30T08:16:12.717Z,1008.44
2023-01-30T08:17:12.666Z,1008.68
2023-01-30T08:18:12.640Z,1008.56
2023-01-30T08:19:12.621Z,1008.50
2023-01-30T08:20:12.589Z,1008.48
2023-01-30T08:21:12.601Z,1008.48
2023-01-30T08:22:12.602Z,1008.48
2023-01-30T08:23:12.581Z,1008.48
2023-01-30T08:24:12.562Z,1008.44
2023-01-30T08:25:12.563Z,1008.50
2023-01-30T08:26:12.595Z,1008.55
2023-01-30T08:27:12.720Z,1008.63
2023-01-30T08:28:12.506Z,1008.58
2023-01-30T08:29:12.502Z,1008.56
2023-01-30T08:30:12.480Z,1008.59
2023-01-30T08:31:12.598Z,1008.62
2023-01-30T08:32:14.734Z,1008.62
2023-01-30T08:33:12.504Z,1008.61
2023-01-30T08:34:12.436Z,1008.69
2023-01-30T08:35:12.485Z,1008.73
2023-01-30T08:36:12.435Z,1008.76
2023-01-30T08:37:12.413Z,1008.72
2023-01-30T08:38:12.440Z,1008.69
2023-01-30T08:39:12.425Z,1008.72
2023-01-30T08:40:12.419Z,1008.73
2023-01-30T08:41:12.389Z,1008.75
2023-01-30T08:42:12.371Z,1008.81
2023-01-30T08:43:12.342Z,1008.67
2023-01-30T08:44:12.380Z,1008.75
2023-01-30T08:45:12.360Z,1008.81
2023-01-30T08:46:12.364Z,1008.67
2023-01-30T08:47:12.329Z,1008.75
2023-01-30T08:48:12.410Z,1008.76
2023-01-30T08:49:12.300Z,1008.80
2023-01-30T08:50:14.044Z,1008.80
2023-01-30T08:51:12.279Z,1008.84
2023-01-30T08:52:12.301Z,1008.99
2023-01-30T08:53:12.234Z,1008.95
2023-01-30T08:54:12.226Z,1008.81
2023-01-30T08:55:12.230Z,1008.89
2023-01-30T08:56:12.235Z,1008.84
2023-01-30T08:57:12.217Z,1009.12
2023-01-30T08:58:12.308Z,1008.81
2023-01-30T08:59:12.202Z,1008.84
2023-01-30T09:00:12.158Z,1008.89
2023-01-30T09:01:13.892Z,1009.04
2023-01-30T09:02:12.207Z,1008.99
2023-01-30T09:03:12.150Z,1008.99
2023-01-30T09:04:12.136Z,1009.06
2023-01-30T09:05:12.322Z,1008.97
2023-01-30T09:06:12.103Z,1009.02
2023-01-30T09:07:12.134Z,1008.98
2023-01-30T09:08:12.090Z,1008.96
2023-01-30T09:09:12.187Z,1008.99
2023-01-30T09:10:12.059Z,1009.11
2023-01-30T09:11:12.078Z,1009.10
2023-01-30T09:12:12.057Z,1009.15
2023-01-30T09:13:13.139Z,1009.16
2023-01-30T09:14:12.020Z,1009.15
2023-01-30T09:15:11.997Z,1009.08
2023-01-30T09:16:12.064Z,1009.05
2023-01-30T09:17:11.978Z,1009.14
2023-01-30T09:18:11.994Z,1009.05
2023-01-30T09:19:11.988Z,1009.10
2023-01-30T09:20:11.975Z,1009.08
2023-01-30T09:21:12.048Z,1009.11
2023-01-30T09:22:11.926Z,1009.12
2023-01-30T09:23:11.993Z,1008.95
2023-01-30T09:24:11.906Z,1008.96
2023-01-30T09:25:11.926Z,1009.05
2023-01-30T09:26:11.985Z,1008.98
2023-01-30T09:27:11.921Z,1008.96
2023-01-30T09:28:12.059Z,1009.03
2023-01-30T09:29:11.859Z,1008.97
2023-01-30T09:30:11.870Z,1009.05
2023-01-30T09:31:11.977Z,1009.08
2023-01-30T09:32:11.825Z,1009.12
2023-01-30T09:33:11.885Z,1009.11
2023-01-30T09:34:11.833Z,1009.13
2023-01-30T09:35:11.797Z,1009.14
2023-01-30T09:36:11.797Z,1009.13
2023-01-30T09:37:11.835Z,1009.19
2023-01-30T09:38:11.753Z,1009.22
2023-01-30T09:39:11.775Z,1009.27
2023-01-30T09:40:14.189Z,1009.25
2023-01-30T09:41:11.748Z,1009.22
2023-01-30T09:42:11.768Z,1009.26
2023-01-30T09:43:11.772Z,1009.31
2023-01-30T09:44:11.716Z,1009.28
2023-01-30T09:45:11.744Z,1009.24
2023-01-30T09:46:11.722Z,1009.28
2023-01-30T09:47:11.707Z,1009.34
2023-01-30T09:48:11.668Z,1009.29
2023-01-30T09:49:11.755Z,1009.35
2023-01-30T09:50:11.623Z,1009.37
2023-01-30T09:51:11.640Z,1009.39
2023-01-30T09:52:11.632Z,1009.43
2023-01-30T09:53:11.603Z,1009.24
2023-01-30T09:54:11.587Z,1009.28
2023-01-30T09:55:11.624Z,1009.25
2023-01-30T09:56:11.572Z,1009.32
2023-01-30T09:57:22.228Z,1009.39
2023-01-30T09:58:12.572Z,1009.25
2023-01-30T09:59:11.587Z,1009.27
2023-01-30T10:00:11.563Z,1009.50
2023-01-30T10:01:11.514Z,1009.40
2023-01-30T10:02:11.526Z,1009.41
2023-01-30T10:03:11.582Z,1009.43
2023-01-30T10:04:11.577Z,1009.35
2023-01-30T10:05:11.544Z,1009.33
2023-01-30T10:06:11.485Z,1009.32
2023-01-30T10:07:11.456Z,1009.35
2023-01-30T10:08:11.477Z,1009.35
2023-01-30T10:09:11.425Z,1009.36
2023-01-30T10:10:11.422Z,1009.38
2023-01-30T10:11:11.412Z,1009.33
2023-01-30T10:12:11.454Z,1009.34
2023-01-30T10:13:11.413Z,1009.34
2023-01-30T10:14:11.377Z,1009.33
2023-01-30T10:15:11.361Z,1009.38
2023-01-30T10:16:11.437Z,1009.47
2023-01-30T10:17:11.435Z,1009.35
2023-01-30T10:18:11.377Z,1009.36
2023-01-30T10:19:11.352Z,1009.29
2023-01-30T10:20:11.328Z,1009.28
2023-01-30T10:21:11.309Z,1009.26
2023-01-30T10:22:11.381Z,1009.17
2023-01-30T10:23:11.288Z,1009.21
2023-01-30T10:24:11.321Z,1009.28
2023-01-30T10:25:11.498Z,1009.25
2023-01-30T10:26:11.334Z,1009.25
2023-01-30T10:27:11.249Z,1009.13
2023-01-30T10:28:11.217Z,1009.23
2023-01-30T10:29:11.206Z,1009.25
2023-01-30T10:30:11.209Z,1009.31
2023-01-30T10:31:11.399Z,1009.34
2023-01-30T10:32:11.210Z,1009.30
2023-01-30T10:33:11.260Z,1009.29
2023-01-30T10:34:11.209Z,1009.36
2023-01-30T10:35:11.157Z,1009.19
2023-01-30T10:36:11.139Z,1009.26
2023-01-30T10:37:11.168Z,1009.31
2023-01-30T10:38:11.118Z,1009.28
2023-01-30T10:39:11.149Z,1009.24
2023-01-30T10:40:11.097Z,1009.23
2023-01-30T10:41:11.121Z,1009.31
2023-01-30T10:42:11.885Z,1009.30
2023-01-30T10:43:11.278Z,1009.30
2023-01-30T10:44:11.087Z,1009.31
2023-01-30T10:45:11.070Z,1009.27
2023-01-30T10:46:11.113Z,1009.34
2023-01-30T10:47:11.051Z,1009.31
2023-01-30T10:48:11.056Z,1009.40
2023-01-30T10:49:11.025Z,1009.35
2023-01-30T10:50:11.088Z,1009.39
2023-01-30T10:51:10.989Z,1009.24
2023-01-30T10:52:10.986Z,1009.43
2023-01-30T10:53:10.959Z,1009.32
2023-01-30T10:54:10.977Z,1009.42
2023-01-30T10:55:11.003Z,1009.39
2023-01-30T10:56:10.947Z,1009.35
2023-01-30T10:57:10.916Z,1009.38
2023-01-30T10:58:10.915Z,1009.37
2023-01-30T10:59:10.897Z,1009.37
2023-01-30T11:00:13.248Z,1009.45
2023-01-30T11:01:10.875Z,1009.27
2023-01-30T11:02:10.893Z,1009.34
2023-01-30T11:03:10.938Z,1009.49
2023-01-30T11:04:10.855Z,1009.22
2023-01-30T11:05:10.837Z,1009.49
2023-01-30T11:06:11.276Z,1009.40
2023-01-30T11:07:10.812Z,1009.44
2023-01-30T11:08:10.847Z,1009.49
2023-01-30T11:09:10.855Z,1009.52
2023-01-30T11:10:10.799Z,1009.47
2023-01-30T11:11:10.766Z,1009.59
2023-01-30T11:12:10.822Z,1009.44
2023-01-30T11:13:10.797Z,1009.54
2023-01-30T11:14:10.740Z,1009.50
2023-01-30T11:15:10.726Z,1009.52
2023-01-30T11:16:10.916Z,1009.59
2023-01-30T11:17:10.734Z,1009.53
2023-01-30T11:19:21.650Z,1009.54
2023-01-30T11:20:13.487Z,1009.50
2023-01-30T11:21:10.732Z,1009.51
2023-01-30T11:22:10.688Z,1009.59
2023-01-30T11:23:10.664Z,1009.34
2023-01-30T11:24:10.623Z,1009.58
2023-01-30T11:25:10.624Z,1009.41
2023-01-30T11:26:11.956Z,1009.49
2023-01-30T11:27:10.670Z,1009.52
2023-01-30T11:28:10.622Z,1009.54
2023-01-30T11:29:10.584Z,1009.52
2023-01-30T11:30:10.573Z,1009.49
2023-01-30T11:31:10.577Z,1009.39
2023-01-30T11:32:10.679Z,1009.47
2023-01-30T11:33:10.601Z,1009.51
2023-01-30T11:34:10.569Z,1009.59
2023-01-30T11:35:12.916Z,1009.48
2023-01-30T11:36:10.545Z,1009.68
2023-01-30T11:37:10.502Z,1009.71
2023-01-30T11:38:10.501Z,1009.66
2023-01-30T11:39:10.484Z,1009.71
2023-01-30T11:40:10.567Z,1009.54
2023-01-30T11:41:10.456Z,1009.53
2023-01-30T11:42:10.490Z,1009.71
2023-01-30T11:43:10.436Z,1009.58
2023-01-30T11:44:10.572Z,1009.56
2023-01-30T11:45:17.604Z,1009.57
2023-01-30T11:46:11.478Z,1009.61
2023-01-30T11:47:10.416Z,1009.80
2023-01-30T11:48:17.018Z,1009.72
2023-01-30T11:49:44.991Z,1009.62
2023-01-30T11:50:16.867Z,1009.74
2023-01-30T11:51:11.368Z,1009.78
2023-01-30T11:52:10.352Z,1009.66
2023-01-30T11:53:10.360Z,1009.65
2023-01-30T11:54:10.314Z,1009.65
2023-01-30T11:55:10.321Z,1009.81
2023-01-30T11:56:12.940Z,1009.57
2023-01-30T11:57:10.320Z,1009.52
2023-01-30T11:58:10.258Z,1009.74
2023-01-30T11:59:10.267Z,1009.62
2023-01-30T12:00:10.252Z,1009.58
2023-01-30T12:01:10.272Z,1009.58
2023-01-30T12:02:10.333Z,1009.52
2023-01-30T12:03:10.281Z,1009.62
2023-01-30T12:04:10.265Z,1009.63
2023-01-30T12:05:10.191Z,1009.53
2023-01-30T12:06:10.191Z,1009.62